Time;durP1;ratioP1;P1;durP2;ratioP2;P2;SDS_P1;SDS_P2;PMS_P1;PMS_P2;Temp;Humidity;BMP_temperature;BMP_pressure;BME280_temperature;BME280_humidity;BME280_pressure;Samples;Min_cycle;Max_cycle;Signal;HPM_P1;HPM_P2
2022/01/09 00:01:42;;;;;;;9.27;8.40;;;0.80;99.90;;;;;;5010367;28;20074;-74
2022/01/09 00:04:08;;;;;;;9.32;8.45;;;0.80;99.90;;;;;;5003095;28;20124;-75
2022/01/09 00:06:33;;;;;;;9.30;8.32;;;1.00;99.90;;;;;;4995881;28;20039;-75
2022/01/09 00:08:59;;;;;;;9.90;8.90;;;0.80;99.90;;;;;;5006599;28;20049;-75
2022/01/09 00:11:26;;;;;;;10.50;9.40;;;0.80;99.90;;;;;;4999957;28;20027;-75
2022/01/09 00:13:56;;;;;;;10.18;9.23;;;0.80;99.90;;;;;;5006359;28;20503;-75
2022/01/09 00:16:23;;;;;;;10.68;9.60;;;0.80;99.90;;;;;;5007989;28;20068;-74
2022/01/09 00:18:49;;;;;;;10.35;9.23;;;0.80;99.90;;;;;;5007132;28;20037;-74
2022/01/09 00:21:15;;;;;;;9.73;8.70;;;0.80;99.90;;;;;;5010284;28;20033;-75
2022/01/09 00:23:42;;;;;;;10.57;9.57;;;0.90;99.90;;;;;;5007046;28;20034;-74
2022/01/09 00:26:09;;;;;;;9.73;8.82;;;0.80;99.90;;;;;;5006541;28;20026;-75
2022/01/09 00:28:35;;;;;;;10.82;9.73;;;0.90;99.90;;;;;;4997349;28;20026;-73
2022/01/09 00:31:01;;;;;;;10.73;9.63;;;0.90;99.90;;;;;;5000570;28;20026;-74
2022/01/09 00:33:27;;;;;;;10.65;9.60;;;0.90;99.90;;;;;;5008149;28;20033;-74
2022/01/09 00:35:52;;;;;;;10.63;9.63;;;0.90;99.90;;;;;;5002281;28;20032;-74
2022/01/09 00:38:18;;;;;;;10.38;9.38;;;0.90;99.90;;;;;;4995973;28;20503;-75
2022/01/09 00:40:44;;;;;;;10.45;9.45;;;0.90;99.90;;;;;;5009591;28;20034;-74
2022/01/09 00:43:10;;;;;;;9.80;8.55;;;0.90;99.90;;;;;;5002917;28;20026;-75
2022/01/09 00:45:37;;;;;;;10.05;9.00;;;0.90;99.90;;;;;;5002932;28;20058;-74
2022/01/09 00:48:03;;;;;;;10.60;9.52;;;0.90;99.90;;;;;;4994687;28;20049;-75
2022/01/09 00:50:28;;;;;;;9.05;8.25;;;0.90;99.90;;;;;;5008475;28;20030;-74
2022/01/09 00:52:54;;;;;;;11.15;9.95;;;0.90;99.90;;;;;;5014599;28;20090;-75
2022/01/09 00:55:20;;;;;;;10.40;9.40;;;0.90;99.90;;;;;;5012019;28;20045;-74
2022/01/09 00:57:45;;;;;;;9.82;8.48;;;0.90;99.90;;;;;;5011432;28;20105;-76
2022/01/09 01:00:12;;;;;;;10.88;8.43;;;0.80;99.90;;;;;;5008509;28;20427;-75
2022/01/09 01:02:38;;;;;;;8.75;7.95;;;0.90;99.90;;;;;;5012599;28;20037;-75
2022/01/09 01:05:05;;;;;;;9.20;8.40;;;0.90;99.90;;;;;;5010528;28;20392;-75
2022/01/09 01:07:31;;;;;;;9.02;8.20;;;0.90;99.90;;;;;;5013342;28;20026;-74
2022/01/09 01:09:57;;;;;;;9.93;8.93;;;0.90;99.90;;;;;;5011345;28;20538;-74
2022/01/09 01:12:27;;;;;;;8.88;8.10;;;1.00;99.90;;;;;;5013415;28;20018;-75
2022/01/09 01:14:53;;;;;;;10.25;9.25;;;0.80;99.90;;;;;;5011162;28;20026;-74
2022/01/09 01:17:20;;;;;;;10.25;9.18;;;0.90;99.90;;;;;;5014337;28;20480;-75
2022/01/09 01:19:46;;;;;;;9.23;8.43;;;0.80;99.90;;;;;;5007777;28;20075;-75
2022/01/09 01:22:12;;;;;;;9.32;8.45;;;0.80;99.90;;;;;;5012839;28;20105;-76
2022/01/09 01:24:38;;;;;;;9.30;8.50;;;0.80;99.90;;;;;;4997764;28;20030;-76
2022/01/09 01:27:04;;;;;;;8.95;8.05;;;0.80;99.90;;;;;;5008784;28;20084;-76
2022/01/09 01:29:30;;;;;;;8.60;7.80;;;0.90;99.90;;;;;;5012218;28;20423;-75
2022/01/09 01:31:55;;;;;;;8.27;7.47;;;0.90;99.90;;;;;;5008235;28;20053;-76
2022/01/09 01:34:21;;;;;;;8.13;7.40;;;0.90;99.90;;;;;;5005993;28;20503;-75
2022/01/09 01:36:46;;;;;;;8.20;7.22;;;1.00;99.90;;;;;;5003186;28;20072;-75
2022/01/09 01:39:12;;;;;;;8.02;7.22;;;1.00;99.90;;;;;;5000969;28;20026;-75
2022/01/09 01:41:38;;;;;;;7.60;6.90;;;1.00;99.90;;;;;;5010943;28;20060;-75
2022/01/09 01:44:08;;;;;;;7.65;6.82;;;1.00;99.90;;;;;;5005378;28;20511;-75
2022/01/09 01:46:33;;;;;;;7.50;6.70;;;1.00;99.90;;;;;;5010217;28;20057;-75
2022/01/09 01:48:59;;;;;;;8.20;7.40;;;1.20;99.90;;;;;;4998155;28;20061;-75
2022/01/09 01:51:24;;;;;;;8.25;7.45;;;1.00;99.90;;;;;;5000588;28;20109;-75
2022/01/09 01:53:54;;;;;;;8.20;7.40;;;0.90;99.90;;;;;;5012507;28;20392;-75
2022/01/09 01:56:20;;;;;;;7.65;6.97;;;0.90;99.90;;;;;;5002116;28;20510;-74
2022/01/09 01:58:47;;;;;;;8.23;7.40;;;0.90;99.90;;;;;;5012082;28;20022;-75
2022/01/09 02:01:12;;;;;;;8.88;7.55;;;0.90;99.90;;;;;;5005313;28;20034;-74
2022/01/09 02:03:38;;;;;;;8.40;7.15;;;0.80;99.90;;;;;;5012673;28;20541;-76
2022/01/09 02:06:05;;;;;;;9.27;8.38;;;0.80;99.90;;;;;;5011731;28;20026;-75
2022/01/09 02:08:31;;;;;;;7.75;7.05;;;0.80;99.90;;;;;;5010878;28;20053;-75
2022/01/09 02:10:57;;;;;;;8.57;7.68;;;0.80;99.90;;;;;;5010432;28;20049;-76
2022/01/09 02:13:23;;;;;;;7.97;7.18;;;0.80;99.90;;;;;;5007392;28;20492;-76
2022/01/09 02:15:49;;;;;;;8.00;7.22;;;0.80;99.90;;;;;;5011709;28;20037;-76
2022/01/09 02:18:17;;;;;;;7.40;6.72;;;0.80;99.90;;;;;;5008582;28;20042;-75
2022/01/09 02:20:43;;;;;;;7.70;7.00;;;0.90;99.90;;;;;;5013054;28;20025;-75
2022/01/09 02:23:10;;;;;;;7.22;6.55;;;0.80;99.90;;;;;;5010756;28;20485;-76
2022/01/09 02:25:37;;;;;;;6.97;6.28;;;0.90;99.90;;;;;;5012413;28;20052;-74
2022/01/09 02:28:04;;;;;;;7.20;6.50;;;0.90;99.90;;;;;;5006843;28;20032;-74
2022/01/09 02:30:32;;;;;;;7.95;7.25;;;0.90;99.90;;;;;;5008535;28;20097;-74
2022/01/09 02:32:58;;;;;;;8.23;7.53;;;0.80;99.90;;;;;;5012544;28;20400;-74
2022/01/09 02:35:25;;;;;;;8.02;7.22;;;0.80;99.90;;;;;;4998691;28;20504;-74
2022/01/09 02:37:51;;;;;;;7.70;7.00;;;0.80;99.90;;;;;;5008326;28;20034;-75
2022/01/09 02:40:16;;;;;;;8.13;7.43;;;0.80;99.90;;;;;;5008557;28;20399;-76
2022/01/09 02:42:42;;;;;;;8.95;7.60;;;0.70;99.90;;;;;;5011256;28;20116;-75
2022/01/09 02:45:08;;;;;;;7.30;6.68;;;0.70;99.90;;;;;;5000538;28;20567;-75
2022/01/09 02:47:36;;;;;;;7.70;7.00;;;0.70;99.90;;;;;;5006960;28;20491;-75
2022/01/09 02:50:29;;;;;;;7.00;6.40;;;0.60;99.90;;;;;;4997320;28;20468;-76
2022/01/09 02:52:58;;;;;;;7.53;6.82;;;0.70;99.90;;;;;;5011948;28;20040;-77
2022/01/09 02:55:26;;;;;;;8.40;7.60;;;0.60;99.90;;;;;;5009910;28;20030;-77
2022/01/09 02:57:59;;;;;;;7.80;7.10;;;0.60;99.90;;;;;;5012346;28;20026;-77
2022/01/09 03:00:31;;;;;;;7.35;6.60;;;0.60;99.90;;;;;;5009194;28;20033;-77
2022/01/09 03:02:57;;;;;;;7.10;6.40;;;0.60;99.90;;;;;;5010458;28;20165;-76
2022/01/09 03:05:24;;;;;;;6.63;6.03;;;0.70;99.90;;;;;;5008386;28;20061;-76
2022/01/09 03:07:50;;;;;;;6.65;6.05;;;0.60;99.90;;;;;;5010353;28;20022;-77
2022/01/09 03:10:18;;;;;;;6.35;5.75;;;0.70;99.90;;;;;;5005084;28;20029;-76
2022/01/09 03:12:45;;;;;;;5.13;4.63;;;0.60;99.90;;;;;;5006950;28;20022;-77
2022/01/09 03:15:11;;;;;;;5.05;4.57;;;0.70;99.90;;;;;;5001254;28;20431;-77
2022/01/09 03:17:37;;;;;;;4.50;4.10;;;0.70;99.90;;;;;;4996063;28;20046;-76
2022/01/09 03:20:06;;;;;;;4.55;4.15;;;0.70;99.90;;;;;;5009914;28;20018;-77
2022/01/09 03:22:31;;;;;;;4.20;3.90;;;0.80;99.90;;;;;;5010595;28;20022;-74
2022/01/09 03:24:57;;;;;;;4.22;3.92;;;0.80;99.90;;;;;;5007888;28;20025;-73
2022/01/09 03:27:22;;;;;;;3.90;3.60;;;0.80;99.90;;;;;;5006069;28;20388;-75
2022/01/09 03:29:48;;;;;;;3.25;3.00;;;0.80;99.90;;;;;;5010259;28;20599;-75
2022/01/09 03:32:14;;;;;;;3.33;3.03;;;0.80;99.90;;;;;;5005602;28;20038;-74
2022/01/09 03:34:39;;;;;;;2.92;2.72;;;0.90;99.90;;;;;;5011435;28;20033;-75
2022/01/09 03:37:06;;;;;;;3.22;3.00;;;0.90;99.90;;;;;;5008374;28;20022;-74
2022/01/09 03:39:32;;;;;;;3.20;3.00;;;0.90;99.90;;;;;;5007754;28;20068;-75
2022/01/09 03:41:58;;;;;;;2.90;2.70;;;0.90;99.90;;;;;;5000933;28;20026;-75
2022/01/09 03:44:25;;;;;;;3.10;2.90;;;1.00;99.90;;;;;;5000303;28;20057;-76
2022/01/09 03:46:50;;;;;;;3.67;3.38;;;1.10;99.90;;;;;;5009573;28;20129;-76
2022/01/09 03:49:16;;;;;;;3.40;3.15;;;0.90;99.90;;;;;;5006528;28;20038;-76
2022/01/09 03:51:44;;;;;;;3.70;3.40;;;0.90;99.90;;;;;;5010271;28;20026;-76
2022/01/09 03:54:10;;;;;;;3.15;2.95;;;0.90;99.90;;;;;;5010314;28;20085;-74
2022/01/09 03:56:35;;;;;;;3.83;3.42;;;0.90;99.90;;;;;;5010663;28;20495;-75
2022/01/09 03:59:01;;;;;;;3.45;3.20;;;0.80;99.90;;;;;;5010834;28;20026;-76
2022/01/09 04:01:27;;;;;;;3.47;3.17;;;0.80;99.90;;;;;;5002839;28;20030;-75
2022/01/09 04:03:53;;;;;;;3.78;3.47;;;0.90;99.90;;;;;;4997543;28;20025;-75
2022/01/09 04:06:19;;;;;;;3.70;3.40;;;0.80;99.90;;;;;;4995449;28;20053;-75
2022/01/09 04:08:45;;;;;;;4.00;3.70;;;0.80;99.90;;;;;;5004949;28;20031;-74
2022/01/09 04:11:14;;;;;;;3.97;3.67;;;0.80;99.90;;;;;;4998233;28;20034;-75
2022/01/09 04:13:39;;;;;;;3.90;3.60;;;0.90;99.90;;;;;;4999178;28;20572;-75
2022/01/09 04:16:05;;;;;;;3.97;3.67;;;0.80;99.90;;;;;;5002735;28;20109;-74
2022/01/09 04:18:31;;;;;;;3.20;3.00;;;0.80;99.90;;;;;;5000404;28;20358;-73
2022/01/09 04:20:58;;;;;;;3.00;2.80;;;0.80;99.90;;;;;;5010277;28;20014;-74
2022/01/09 04:23:23;;;;;;;3.28;3.08;;;0.90;99.90;;;;;;4998330;28;20026;-75
2022/01/09 04:25:49;;;;;;;2.97;2.78;;;0.90;99.90;;;;;;5004415;28;20030;-74
2022/01/09 04:28:16;;;;;;;3.47;3.17;;;0.90;99.90;;;;;;5011758;28;20518;-74
2022/01/09 04:30:41;;;;;;;2.78;2.58;;;0.90;99.90;;;;;;5007873;28;20061;-74
2022/01/09 04:33:09;;;;;;;3.47;3.17;;;0.90;99.90;;;;;;5001870;28;20018;-74
2022/01/09 04:35:34;;;;;;;3.70;3.40;;;1.00;99.90;;;;;;5013699;28;20053;-75
2022/01/09 04:38:00;;;;;;;3.78;3.47;;;1.00;99.90;;;;;;5012258;28;20107;-74
2022/01/09 04:40:26;;;;;;;3.65;3.35;;;1.00;99.90;;;;;;5008742;28;20034;-76
2022/01/09 04:43:00;;;;;;;3.70;3.40;;;0.90;99.90;;;;;;5011914;28;20026;-75
2022/01/09 04:45:28;;;;;;;4.65;4.30;;;0.90;99.90;;;;;;5005407;28;20028;-76
2022/01/09 04:47:58;;;;;;;4.70;4.30;;;1.00;99.90;;;;;;5013752;28;20026;-74
2022/01/09 04:50:25;;;;;;;4.75;4.38;;;0.90;99.90;;;;;;5011153;28;20550;-75
2022/01/09 04:53:02;;;;;;;5.20;4.80;;;0.90;99.90;;;;;;5013312;28;20018;-74
2022/01/09 04:55:29;;;;;;;4.60;4.30;;;0.90;99.90;;;;;;5013042;28;20491;-75
2022/01/09 04:57:55;;;;;;;5.43;5.03;;;0.90;99.90;;;;;;5011257;28;20041;-76
2022/01/09 05:00:21;;;;;;;5.68;5.20;;;0.90;99.90;;;;;;5010934;28;20488;-76
2022/01/09 05:02:47;;;;;;;5.53;5.13;;;0.90;99.90;;;;;;5011045;28;20048;-75
2022/01/09 05:05:13;;;;;;;5.00;4.60;;;0.90;99.90;;;;;;5009644;28;20391;-75
2022/01/09 05:07:39;;;;;;;5.50;5.10;;;1.00;99.90;;;;;;5011630;28;20030;-75
2022/01/09 05:10:06;;;;;;;5.28;4.88;;;1.00;99.90;;;;;;5008158;28;20015;-75
2022/01/09 05:12:32;;;;;;;6.30;5.70;;;1.00;99.90;;;;;;5013952;28;20068;-74
2022/01/09 05:14:58;;;;;;;6.43;5.93;;;1.00;99.90;;;;;;5011759;28;20022;-74
2022/01/09 05:17:23;;;;;;;6.13;5.63;;;1.00;99.90;;;;;;5012966;28;20488;-74
2022/01/09 05:19:52;;;;;;;6.25;5.75;;;1.00;99.90;;;;;;5009318;28;20415;-74
2022/01/09 05:22:17;;;;;;;6.05;5.63;;;1.00;99.90;;;;;;5014002;28;20022;-74
2022/01/09 05:24:43;;;;;;;6.18;5.68;;;1.00;99.90;;;;;;5010938;28;20068;-74
2022/01/09 05:27:09;;;;;;;6.60;6.10;;;1.10;99.90;;;;;;5007608;28;20029;-74
2022/01/09 05:29:34;;;;;;;7.18;6.47;;;1.10;99.90;;;;;;5004548;28;20026;-74
2022/01/09 05:32:00;;;;;;;6.95;6.35;;;1.10;99.90;;;;;;5009049;28;20037;-74
2022/01/09 05:34:26;;;;;;;6.38;5.88;;;1.20;99.90;;;;;;5013605;28;20096;-75
2022/01/09 05:36:51;;;;;;;6.43;5.93;;;1.20;99.90;;;;;;5011557;28;20018;-74
2022/01/09 05:39:17;;;;;;;6.68;6.18;;;1.30;99.90;;;;;;5014224;28;20045;-76
2022/01/09 05:41:44;;;;;;;7.05;6.45;;;1.30;99.90;;;;;;5013992;28;20480;-75
2022/01/09 05:44:09;;;;;;;7.30;6.70;;;1.50;99.90;;;;;;5000256;28;20101;-75
2022/01/09 05:46:35;;;;;;;8.25;7.47;;;1.40;99.90;;;;;;5002343;28;20487;-75
2022/01/09 05:49:01;;;;;;;8.98;8.13;;;1.30;99.90;;;;;;5014083;28;20080;-74
2022/01/09 05:51:26;;;;;;;9.05;8.25;;;1.20;99.90;;;;;;5005575;28;20035;-75
2022/01/09 05:53:52;;;;;;;9.15;8.32;;;1.30;99.90;;;;;;5007283;28;20072;-75
2022/01/09 05:56:17;;;;;;;8.48;7.68;;;1.30;99.90;;;;;;5012370;28;20112;-75
2022/01/09 05:58:43;;;;;;;8.07;7.38;;;1.30;99.90;;;;;;5012268;28;20151;-75
2022/01/09 06:01:08;;;;;;;9.32;8.52;;;1.30;99.90;;;;;;5013557;28;20026;-75
2022/01/09 06:03:34;;;;;;;8.20;7.50;;;1.40;99.90;;;;;;5013461;28;20124;-75
2022/01/09 06:06:00;;;;;;;10.00;9.13;;;1.40;99.90;;;;;;5011798;28;20034;-76
2022/01/09 06:08:26;;;;;;;9.85;8.95;;;1.40;99.90;;;;;;5000280;28;20026;-75
2022/01/09 06:10:52;;;;;;;10.93;9.88;;;1.30;99.90;;;;;;5012078;28;20045;-74
2022/01/09 06:13:17;;;;;;;10.93;9.77;;;1.30;99.90;;;;;;5013301;28;20507;-75
2022/01/09 06:15:43;;;;;;;10.65;9.73;;;1.30;99.90;;;;;;5013067;28;20026;-75
2022/01/09 06:18:08;;;;;;;10.50;9.60;;;1.40;99.90;;;;;;5011974;28;20032;-75
2022/01/09 06:20:34;;;;;;;10.23;9.02;;;1.30;99.90;;;;;;5011759;28;20025;-76
2022/01/09 06:22:59;;;;;;;10.13;9.13;;;1.30;99.90;;;;;;5013155;28;20480;-76
2022/01/09 06:25:25;;;;;;;11.10;10.00;;;1.40;99.90;;;;;;5011551;28;20029;-74
2022/01/09 06:27:50;;;;;;;11.77;10.65;;;1.40;99.90;;;;;;5011702;28;20044;-74
2022/01/09 06:30:16;;;;;;;10.90;9.80;;;1.40;99.90;;;;;;5005399;28;20145;-73
2022/01/09 06:32:42;;;;;;;12.15;11.05;;;1.40;99.90;;;;;;5005158;28;20033;-76
2022/01/09 06:35:09;;;;;;;12.90;11.60;;;1.40;99.90;;;;;;5001465;28;20440;-75
2022/01/09 06:37:34;;;;;;;11.52;10.40;;;1.40;99.90;;;;;;4997555;28;20030;-75
2022/01/09 06:40:00;;;;;;;11.05;9.95;;;1.40;99.90;;;;;;5000299;28;20022;-76
2022/01/09 06:42:25;;;;;;;12.55;11.23;;;1.50;99.90;;;;;;4999868;28;20041;-73
2022/01/09 06:44:51;;;;;;;12.82;11.52;;;1.40;99.90;;;;;;4995733;28;20077;-73
2022/01/09 06:47:17;;;;;;;11.88;10.77;;;1.50;99.90;;;;;;5006455;28;20030;-74
2022/01/09 06:49:43;;;;;;;10.23;9.25;;;1.50;99.90;;;;;;4999764;28;20104;-74
2022/01/09 06:52:08;;;;;;;12.00;10.80;;;1.50;99.90;;;;;;5011437;28;20087;-74
2022/01/09 06:54:34;;;;;;;9.27;8.40;;;1.50;99.90;;;;;;5012551;28;20042;-73
2022/01/09 06:56:59;;;;;;;9.38;8.48;;;1.60;99.90;;;;;;4998444;28;20080;-74
2022/01/09 06:59:25;;;;;;;10.18;9.25;;;1.60;99.90;;;;;;5006188;28;20034;-74
2022/01/09 07:01:50;;;;;;;9.60;8.70;;;1.60;99.90;;;;;;5005696;28;20492;-74
2022/01/09 07:04:16;;;;;;;10.70;9.70;;;1.60;99.90;;;;;;4999127;28;20492;-74
2022/01/09 07:06:42;;;;;;;11.10;10.10;;;1.60;99.90;;;;;;5011143;28;20029;-73
2022/01/09 07:09:08;;;;;;;12.15;10.90;;;1.60;99.90;;;;;;5012498;28;20096;-74
2022/01/09 07:11:34;;;;;;;10.57;9.57;;;1.60;99.90;;;;;;4999868;28;20504;-73
2022/01/09 07:13:59;;;;;;;9.60;8.70;;;1.60;99.90;;;;;;4994573;28;20110;-74
2022/01/09 07:16:25;;;;;;;9.48;8.57;;;1.60;99.90;;;;;;4996507;28;20085;-74
2022/01/09 07:18:50;;;;;;;11.63;10.50;;;1.60;99.90;;;;;;4995918;28;20033;-74
2022/01/09 07:21:16;;;;;;;19.80;17.75;;;1.60;99.90;;;;;;5003418;28;20069;-74
2022/01/09 07:23:41;;;;;;;25.52;22.85;;;1.70;99.90;;;;;;5011036;28;20515;-74
2022/01/09 07:26:07;;;;;;;13.20;11.98;;;1.70;99.90;;;;;;5012040;28;20420;-74
2022/01/09 07:28:32;;;;;;;9.55;8.60;;;1.70;99.90;;;;;;5006519;28;20412;-74
2022/01/09 07:30:58;;;;;;;13.27;12.07;;;1.60;99.90;;;;;;5003388;28;20029;-75
2022/01/09 07:33:24;;;;;;;12.02;10.82;;;1.70;99.90;;;;;;5002195;28;20022;-76
2022/01/09 07:35:49;;;;;;;11.70;10.70;;;1.70;99.90;;;;;;5011965;28;20057;-75
2022/01/09 07:38:15;;;;;;;9.80;8.80;;;1.70;99.90;;;;;;4998878;28;20603;-75
2022/01/09 07:40:40;;;;;;;10.85;9.85;;;1.80;99.90;;;;;;5000275;28;20121;-75
2022/01/09 07:43:06;;;;;;;9.77;8.98;;;1.90;99.90;;;;;;5005463;28;20033;-75
2022/01/09 07:45:32;;;;;;;11.38;10.57;;;1.70;99.90;;;;;;4992251;28;20026;-75
2022/01/09 07:48:00;;;;;;;7.38;6.82;;;1.80;99.90;;;;;;4998730;28;20015;-76
2022/01/09 07:50:27;;;;;;;5.63;5.22;;;1.90;99.90;;;;;;4996655;28;20023;-74
2022/01/09 07:52:53;;;;;;;5.20;4.80;;;2.00;99.90;;;;;;4995371;28;20100;-75
2022/01/09 07:55:20;;;;;;;11.60;10.63;;;2.00;99.90;;;;;;5004870;28;20029;-74
2022/01/09 07:57:46;;;;;;;5.38;4.60;;;2.00;99.90;;;;;;4995974;28;20061;-75
2022/01/09 08:00:13;;;;;;;2.55;2.35;;;2.10;99.90;;;;;;4993314;28;20051;-74
2022/01/09 08:02:39;;;;;;;1.65;1.55;;;2.10;99.90;;;;;;5003507;28;20047;-75
2022/01/09 08:05:06;;;;;;;1.70;1.60;;;2.10;99.90;;;;;;4996412;28;20129;-75
2022/01/09 08:07:31;;;;;;;1.55;1.45;;;2.10;99.90;;;;;;5006424;28;20026;-75
2022/01/09 08:09:57;;;;;;;1.63;1.20;;;2.10;99.90;;;;;;4998478;28;20027;-75
2022/01/09 08:12:22;;;;;;;1.52;1.10;;;2.00;99.90;;;;;;5000952;28;20034;-75
2022/01/09 08:14:48;;;;;;;1.30;1.20;;;2.10;99.90;;;;;;5008591;28;20025;-75
2022/01/09 08:17:14;;;;;;;0.90;0.90;;;2.00;99.90;;;;;;4995450;28;20053;-74
2022/01/09 08:19:40;;;;;;;0.80;0.80;;;2.10;99.90;;;;;;4997913;28;20040;-74
2022/01/09 08:22:07;;;;;;;0.90;0.90;;;2.00;99.90;;;;;;5008893;28;20038;-75
2022/01/09 08:24:34;;;;;;;1.33;1.23;;;2.00;99.90;;;;;;5008418;28;20104;-76
2022/01/09 08:26:59;;;;;;;8.32;5.65;;;1.90;99.90;;;;;;4998588;28;20085;-75
2022/01/09 08:29:25;;;;;;;19.35;13.98;;;1.90;99.90;;;;;;5000164;28;20022;-75
2022/01/09 08:31:51;;;;;;;16.60;12.07;;;1.90;99.90;;;;;;4999295;28;20038;-75
2022/01/09 08:34:16;;;;;;;21.75;14.80;;;1.90;99.90;;;;;;5008036;28;20037;-75
2022/01/09 08:36:42;;;;;;;4.68;4.00;;;1.90;99.90;;;;;;5000697;28;20369;-75
2022/01/09 08:39:10;;;;;;;1.40;1.20;;;1.80;99.90;;;;;;4995553;28;20085;-76
2022/01/09 08:41:36;;;;;;;1.45;1.10;;;1.90;99.90;;;;;;5004539;28;20105;-75
2022/01/09 08:44:02;;;;;;;2.65;1.50;;;1.90;99.90;;;;;;4996262;28;20113;-75
2022/01/09 08:46:28;;;;;;;2.60;1.30;;;1.80;99.90;;;;;;5000739;28;20030;-76
2022/01/09 08:48:54;;;;;;;2.72;1.88;;;1.90;99.90;;;;;;4997382;28;20053;-74
2022/01/09 08:51:19;;;;;;;2.03;1.23;;;1.80;99.90;;;;;;5006520;28;20065;-75
2022/01/09 08:53:50;;;;;;;1.75;1.50;;;1.70;99.90;;;;;;4998647;28;20109;-75
2022/01/09 08:56:20;;;;;;;2.67;1.45;;;1.70;99.90;;;;;;5000952;28;20027;-75
2022/01/09 08:58:47;;;;;;;1.40;1.20;;;1.70;99.90;;;;;;4999601;28;20037;-75
2022/01/09 09:01:13;;;;;;;1.95;1.67;;;1.70;99.90;;;;;;5008824;28;20106;-77
2022/01/09 09:03:41;;;;;;;5.57;3.53;;;1.70;99.90;;;;;;5001327;28;20105;-75
2022/01/09 09:06:12;;;;;;;2.65;2.20;;;1.60;99.90;;;;;;5003193;28;20383;-75
2022/01/09 09:08:39;;;;;;;2.83;1.48;;;1.60;99.90;;;;;;4999385;28;20022;-75
2022/01/09 09:11:06;;;;;;;2.78;1.60;;;1.60;99.90;;;;;;4999798;28;20085;-76
2022/01/09 09:13:32;;;;;;;2.63;2.20;;;1.70;99.90;;;;;;4994720;28;20029;-76
2022/01/09 09:15:58;;;;;;;3.50;2.40;;;1.70;99.90;;;;;;5000244;28;20030;-76
2022/01/09 09:18:24;;;;;;;2.83;2.15;;;1.70;99.90;;;;;;4998874;28;20030;-75
2022/01/09 09:20:49;;;;;;;3.00;2.30;;;1.70;99.90;;;;;;5010284;28;20026;-76
2022/01/09 09:23:15;;;;;;;5.40;2.65;;;1.70;99.90;;;;;;5002997;28;20091;-76
2022/01/09 09:25:40;;;;;;;4.85;2.75;;;1.80;99.90;;;;;;4996550;28;20038;-75
2022/01/09 09:28:06;;;;;;;4.13;2.78;;;1.80;99.90;;;;;;4998962;28;20029;-75
2022/01/09 09:30:32;;;;;;;3.03;2.30;;;1.80;99.90;;;;;;4997557;28;20029;-75
2022/01/09 09:32:57;;;;;;;3.95;2.30;;;2.10;99.90;;;;;;4999531;28;20022;-76
2022/01/09 09:35:23;;;;;;;3.33;2.47;;;2.00;99.90;;;;;;5008184;28;20583;-75
2022/01/09 09:37:48;;;;;;;2.97;2.33;;;2.00;99.90;;;;;;5005549;28;20112;-75
2022/01/09 09:40:14;;;;;;;5.40;2.10;;;2.00;99.90;;;;;;4999358;28;20030;-75
2022/01/09 09:42:40;;;;;;;5.10;2.60;;;2.00;99.90;;;;;;5004001;28;20027;-75
2022/01/09 09:45:08;;;;;;;3.33;2.00;;;1.90;99.90;;;;;;4993696;28;20396;-75
2022/01/09 09:47:35;;;;;;;3.92;2.35;;;2.00;99.90;;;;;;5003065;28;20030;-75
2022/01/09 09:50:01;;;;;;;8.27;3.33;;;2.10;99.90;;;;;;4990447;28;20044;-75
2022/01/09 09:52:26;;;;;;;5.43;2.50;;;2.10;99.90;;;;;;4996209;28;20550;-75
2022/01/09 09:54:53;;;;;;;3.72;2.53;;;2.10;99.90;;;;;;4999727;28;20015;-75
2022/01/09 09:57:19;;;;;;;4.32;2.00;;;2.20;99.90;;;;;;5008623;28;20361;-75
2022/01/09 09:59:45;;;;;;;4.15;2.30;;;2.10;99.90;;;;;;4995725;28;20392;-75
2022/01/09 10:02:13;;;;;;;4.43;2.40;;;2.10;99.90;;;;;;5004295;28;20026;-76
2022/01/09 10:05:01;;;;;;;3.67;2.20;;;2.10;99.90;;;;;;4996875;28;20369;-77
2022/01/09 10:07:28;;;;;;;4.85;2.47;;;2.10;99.90;;;;;;4999133;28;20479;-77
2022/01/09 10:09:59;;;;;;;3.72;2.60;;;2.10;99.90;;;;;;5014070;28;20036;-76
2022/01/09 10:12:31;;;;;;;4.85;2.63;;;2.10;99.90;;;;;;5003124;28;20032;-76
2022/01/09 10:14:59;;;;;;;3.88;2.45;;;2.10;99.90;;;;;;4994119;28;20109;-77
2022/01/09 10:17:26;;;;;;;5.00;2.83;;;2.10;99.90;;;;;;4996898;28;20034;-75
2022/01/09 10:19:57;;;;;;;4.82;3.00;;;2.20;99.90;;;;;;4999058;28;20023;-76
2022/01/09 10:22:36;;;;;;;5.80;2.58;;;2.00;99.90;;;;;;5004199;28;20080;-76
2022/01/09 10:25:22;;;;;;;7.22;3.50;;;2.20;99.90;;;;;;5001321;28;20033;-75
2022/01/09 10:27:50;;;;;;;5.05;3.13;;;2.20;99.90;;;;;;4996708;28;20033;-76
2022/01/09 10:30:16;;;;;;;4.18;2.72;;;2.10;99.90;;;;;;4997508;28;20026;-75
2022/01/09 10:32:42;;;;;;;5.07;3.03;;;2.20;99.90;;;;;;4995858;28;20034;-76
2022/01/09 10:35:16;;;;;;;5.25;4.15;;;2.20;99.90;;;;;;5000321;28;20520;-75
2022/01/09 10:38:04;;;;;;;6.07;3.47;;;2.20;99.90;;;;;;4997505;28;20033;-76
2022/01/09 10:40:33;;;;;;;4.70;3.40;;;2.20;99.90;;;;;;5006096;28;20019;-77
2022/01/09 10:43:18;;;;;;;8.38;4.45;;;2.20;99.90;;;;;;4999943;28;20399;-76
2022/01/09 10:45:46;;;;;;;9.50;5.43;;;2.30;99.90;;;;;;4990681;28;20034;-77
2022/01/09 10:48:21;;;;;;;4.00;2.72;;;2.30;99.90;;;;;;5002205;28;20034;-76
2022/01/09 10:50:48;;;;;;;5.00;3.10;;;2.20;99.90;;;;;;4999982;28;20480;-77
2022/01/09 10:53:14;;;;;;;4.97;3.15;;;2.30;99.90;;;;;;5003707;28;20105;-77
2022/01/09 10:55:40;;;;;;;5.07;3.53;;;2.30;99.90;;;;;;5004244;28;20439;-77
2022/01/09 10:58:16;;;;;;;8.38;3.70;;;2.10;99.90;;;;;;5001927;28;20030;-77
2022/01/09 11:00:41;;;;;;;6.35;3.63;;;2.20;99.90;;;;;;5003856;28;20476;-75
2022/01/09 11:03:07;;;;;;;5.65;3.20;;;2.20;99.90;;;;;;4998664;28;20116;-76
2022/01/09 11:05:33;;;;;;;7.03;3.40;;;2.20;99.90;;;;;;4997716;28;20109;-77
2022/01/09 11:07:59;;;;;;;4.45;2.88;;;2.20;99.90;;;;;;5003561;28;20101;-77
2022/01/09 11:10:27;;;;;;;4.25;2.72;;;2.20;99.90;;;;;;4998114;28;20076;-77
2022/01/09 11:12:58;;;;;;;5.47;2.90;;;2.30;99.90;;;;;;4994493;28;20026;-76
2022/01/09 11:15:28;;;;;;;5.53;3.25;;;2.20;99.90;;;;;;5000059;28;20619;-76
2022/01/09 11:17:59;;;;;;;4.95;2.55;;;2.30;99.90;;;;;;4992698;28;20035;-76
2022/01/09 11:20:25;;;;;;;5.57;2.40;;;2.20;99.90;;;;;;5011278;28;20438;-75
2022/01/09 11:22:54;;;;;;;3.97;2.35;;;2.30;99.90;;;;;;4996167;28;20029;-76
2022/01/09 11:25:37;;;;;;;5.95;2.67;;;2.30;99.90;;;;;;4987760;28;20022;-76
2022/01/09 11:28:29;;;;;;;4.70;2.67;;;2.30;99.90;;;;;;4994891;28;20560;-77
2022/01/09 11:31:23;;;;;;;4.03;1.80;;;2.20;99.90;;;;;;4993796;28;20066;-77
2022/01/09 11:34:09;;;;;;;3.08;2.13;;;2.20;99.90;;;;;;4985594;28;20027;-77
2022/01/09 11:36:45;;;;;;;3.88;2.58;;;2.20;99.90;;;;;;4994577;28;20030;-77
2022/01/09 11:39:35;;;;;;;3.83;2.15;;;2.20;99.90;;;;;;4993170;28;20105;-76
2022/01/09 11:42:06;;;;;;;2.50;1.73;;;2.30;99.90;;;;;;4997452;28;20026;-77
2022/01/09 11:44:32;;;;;;;3.15;2.10;;;2.20;99.90;;;;;;5009337;28;20029;-76
2022/01/09 11:47:02;;;;;;;3.13;1.85;;;2.30;99.90;;;;;;4999368;28;20033;-75
2022/01/09 11:49:31;;;;;;;4.18;2.58;;;2.30;99.90;;;;;;4998942;28;20053;-74
2022/01/09 11:51:59;;;;;;;2.95;1.80;;;2.20;99.90;;;;;;5003045;28;20395;-76
2022/01/09 11:54:26;;;;;;;3.22;1.90;;;2.20;99.90;;;;;;4998205;28;20022;-77
2022/01/09 11:57:06;;;;;;;3.60;2.20;;;2.30;99.90;;;;;;4992061;28;20428;-77
2022/01/09 11:59:38;;;;;;;3.15;2.28;;;2.20;99.90;;;;;;4996663;28;20100;-76
2022/01/09 12:02:06;;;;;;;3.65;2.53;;;2.20;99.90;;;;;;4996836;28;20444;-76
2022/01/09 12:04:32;;;;;;;6.80;5.22;;;2.20;99.90;;;;;;5001094;28;20030;-76
2022/01/09 12:07:16;;;;;;;11.98;9.40;;;2.20;99.90;;;;;;4997835;28;20030;-75
2022/01/09 12:09:45;;;;;;;6.20;3.25;;;2.20;99.90;;;;;;4993719;28;20431;-75
2022/01/09 12:12:14;;;;;;;6.63;4.22;;;2.20;99.90;;;;;;4995718;28;20077;-76
2022/01/09 12:14:42;;;;;;;6.35;4.65;;;2.20;99.90;;;;;;5003406;28;20093;-75
2022/01/09 12:17:23;;;;;;;6.60;4.93;;;2.20;99.90;;;;;;5000360;28;20030;-75
2022/01/09 12:20:09;;;;;;;7.93;4.93;;;2.20;99.90;;;;;;5005676;28;20037;-76
2022/01/09 12:22:41;;;;;;;;;;;2.20;99.90;;;;;;4998409;28;20040;-76
2022/01/09 12:25:07;;;;;;;11.80;9.60;;;2.10;99.90;;;;;;4997059;28;19953;-77
2022/01/09 12:27:43;;;;;;;5.30;3.78;;;2.20;99.90;;;;;;5002460;28;20041;-77
2022/01/09 12:30:27;;;;;;;;;;;2.20;99.90;;;;;;4992477;28;20011;-76
2022/01/09 12:32:53;;;;;;;4.07;3.67;;;2.20;99.90;;;;;;5004076;28;19975;-76
2022/01/09 12:35:20;;;;;;;6.40;5.05;;;2.20;99.90;;;;;;5000717;28;20034;-76
2022/01/09 12:38:03;;;;;;;8.02;7.15;;;2.20;99.90;;;;;;5008210;28;20499;-76
2022/01/09 12:40:31;;;;;;;5.95;5.35;;;2.30;99.90;;;;;;5001677;28;20026;-76
2022/01/09 12:42:59;;;;;;;5.53;4.50;;;2.20;99.90;;;;;;4999029;28;20096;-76
2022/01/09 12:45:31;;;;;;;7.28;5.63;;;2.20;99.90;;;;;;4998731;28;20143;-75
2022/01/09 12:47:58;;;;;;;9.93;4.95;;;2.10;99.90;;;;;;5008424;28;20023;-77
2022/01/09 12:50:36;;;;;;;6.57;4.40;;;2.20;99.90;;;;;;5008036;28;20033;-76
2022/01/09 12:53:22;;;;;;;7.53;3.90;;;2.10;99.90;;;;;;4990530;28;20025;-75
2022/01/09 12:56:06;;;;;;;10.77;5.28;;;2.30;99.90;;;;;;5001308;28;20120;-75
2022/01/09 12:58:41;;;;;;;7.28;5.28;;;2.20;99.90;;;;;;5002637;28;20027;-75